Terminal Aerodrome Forecast
Issued by NWS Grand Forks, ND

Home | Current Version | Previous Version | Graphics & Text | Print | Product List | Glossary On
Versions: 1 2 3 4 5 6 7 8 9 10 11 12 13 14 15 16 17 18 19 20 21 22
000
FTUS43 KFGF 171149 CCA
TAFGFK
TAF COR
KGFK 171149Z 1712/1812 34009KT 1 1/2SM BR OVC002
      TEMPO 1712/1713 1/2SM FG
     FM171300 35009KT 5SM BR FEW002
     FM171400 34009KT P6SM SKC
     FM180300 26004KT P6SM SCT250=

USA.gov is the U.S. government's official web portal to all federal, state and local government web resources and services.